FW6327 Weather Reports


Display with metric or nautical units.
time (UTC)temp
F
wind
direction
speed
MPH
gust
MPH
rain 1hr
in
rain 24hr
in
rain mn
in
humidity
%
barometer
mb
20210614115101 50 207 5.0 8.0 0.00 0.00 0.00 73 1020.0
20210614114617 50 172 0.0 4.0 0.00 0.00 0.00 77 1020.2
20210614114048 49 196 0.0 2.0 0.00 0.00 0.00 78 1020.2
20210614113542 48 149 0.0 2.0 0.00 0.00 0.00 78 1020.2
20210614113123 47 92 0.0 3.0 0.00 0.00 0.00 80 1020.1
20210614112541 47 137 0.0 3.0 0.00 0.00 0.00 81 1020.0
20210614112108 46 174 1.0 3.0 0.00 0.00 0.00 81 1020.0
20210614111559 46 140 1.0 3.0 0.00 0.00 0.00 81 1019.9
20210614111034 45 74 1.0 3.0 0.00 0.00 0.00 83 1019.9
20210614110534 44 14 1.0 3.0 0.00 0.00 0.00 84 1019.7
20210614110056 44 157 1.0 3.0 0.00 0.00 0.00 83 1019.7
20210614105531 43 74 1.0 2.0 0.00 0.00 0.00 84 1019.5
20210614105025 43 61 0.0 3.0 0.00 0.00 0.00 86 1019.6
20210614104629 42 57 0.0 3.0 0.00 0.00 0.00 87 1019.6
20210614104021 41 51 1.0 4.0 0.00 0.00 0.00 87 1019.5
20210614103520 41 69 0.0 4.0 0.00 0.00 0.00 88 1019.4
20210614103103 40 69 2.0 4.0 0.00 0.00 0.00 91 1019.4
20210614102517 40 57 0.0 2.0 0.00 0.00 0.00 91 1019.4
20210614102015 39 58 1.0 4.0 0.00 0.00 0.00 92 1019.3
20210614101523 38 48 2.0 4.0 0.00 0.00 0.00 93 1019.3
20210614101011 38 5 1.0 4.0 0.00 0.00 0.00 95 1019.4
20210614100509 36 71 0.0 1.0 0.00 0.00 0.00 95 1019.3
20210614095506 36 71 0.0 1.0 0.00 0.01 0.00 95 1019.3
20210614095006 35 71 0.0 2.0 0.00 0.01 0.00 95 1019.3
20210614094523 35 71 1.0 3.0 0.00 0.01 0.00 95 1019.3
20210614094008 35 80 1.0 3.0 0.00 0.01 0.00 95 1019.3
20210614093515 35 65 1.0 3.0 0.00 0.01 0.00 96 1019.3
20210614093010 35 167 0.0 3.0 0.00 0.01 0.00 96 1019.3
20210614092506 35 222 1.0 2.0 0.00 0.01 0.00 96 1019.3
20210614092002 35 223 0.0 1.0 0.00 0.01 0.00 96 1019.3
20210614091641 35 223 0.0 1.0 0.00 0.01 0.00 96 1019.2
20210614091116 34 223 0.0 1.0 0.00 0.01 0.00 96 1019.3
20210614090614 34 223 0.0 3.0 0.00 0.01 0.00 97 1019.5
20210614090337 33 223 0.0 3.0 0.00 0.01 0.00 96 1019.4
20210614085558 32 241 0.0 2.0 0.00 0.01 0.00 96 1019.3
20210614085057 32 241 0.0 2.0 0.00 0.01 0.00 96 1019.4
20210614084717 32 241 0.0 1.0 0.00 0.01 0.00 96 1019.4
20210614084100 32 241 0.0 1.0 0.00 0.01 0.00 96 1019.4
20210614083618 32 241 0.0 1.0 0.00 0.01 0.00 96 1019.3
20210614083218 32 241 0.0 2.0 0.00 0.01 0.00 96 1019.3
20210614082552 32 241 0.0 2.0 0.00 0.01 0.00 96 1019.2
20210614082050 32 241 0.0 2.0 0.00 0.01 0.00 96 1019.1
20210614081709 32 241 0.0 0.0 0.00 0.01 0.00 96 1019.0
20210614081048 32 241 0.0 0.0 0.00 0.01 0.00 96 1018.9
20210614080603 32 241 0.0 1.0 0.00 0.01 0.00 96 1018.9
20210614080115 32 241 0.0 1.0 0.00 0.01 0.00 96 1018.9
20210614075553 32 241 0.0 3.0 0.00 0.02 0.00 96 1018.9
20210614075044 32 241 1.0 3.0 0.00 0.02 0.00 96 1018.8
20210614074652 32 241 0.0 2.0 0.00 0.02 0.00 97 1018.8
20210614074043 32 241 0.0 2.0 0.00 0.02 0.00 97 1018.8
20210614073542 32 241 0.0 2.0 0.00 0.02 0.00 97 1018.8
20210614072539 32 241 0.0 1.0 0.00 0.02 0.00 96 1018.6
20210614072055 32 241 0.0 2.0 0.00 0.02 0.00 96 1018.5
20210614071609 32 241 0.0 2.0 0.00 0.02 0.00 96 1018.6
20210614071037 32 241 0.0 2.0 0.00 0.02 0.00 96 1018.4
20210614070535 32 241 1.0 2.0 0.00 0.02 0.00 96 1018.4
20210614070048 32 241 1.0 2.0 0.00 0.02 0.00 97 1018.3
20210614065534 32 241 0.0 3.0 0.00 0.05 0.00 97 1018.2
20210614065041 31 241 1.0 3.0 0.00 0.05 0.00 97 1018.2
20210614064614 31 241 0.0 2.0 0.00 0.05 0.00 96 1018.2
20210614064031 30 241 0.0 2.0 0.00 0.05 0.00 96 1018.1
20210614063533 30 241 0.0 2.0 0.00 0.05 0.00 96 1018.1
20210614063115 30 241 0.0 3.0 0.00 0.05 0.00 95 1018.0
20210614062534 30 241 1.0 3.0 0.00 0.05 0.00 95 1018.1
20210614062043 30 241 0.0 1.0 0.00 0.05 0.00 95 1018.1
20210614061544 30 241 0.0 1.0 0.00 0.05 0.00 95 1017.9
20210614061023 31 241 0.0 1.0 0.00 0.05 0.00 95 1017.9
20210614060521 31 241 0.0 2.0 0.00 0.05 0.00 95 1017.9
20210614060034 31 241 0.0 2.0 0.00 0.05 0.00 95 1017.8
20210614055520 31 241 0.0 2.0 0.00 0.05 0.00 95 1017.8
20210614055019 31 241 0.0 2.0 0.00 0.05 0.00 95 1017.9
20210614054547 31 241 0.0 1.0 0.00 0.05 0.00 95 1017.7
20210614054016 31 241 0.0 2.0 0.00 0.05 0.00 95 1017.8
20210614053515 31 241 1.0 2.0 0.00 0.05 0.00 95 1017.7
20210614053021 31 241 0.0 1.0 0.00 0.05 0.00 95 1017.7
20210614052512 31 241 0.0 1.0 0.00 0.05 0.00 95 1017.6
20210614052027 31 241 0.0 1.0 0.00 0.05 0.00 95 1017.5
20210614051512 31 241 0.0 1.0 0.00 0.05 0.00 95 1017.5
20210614051012 31 241 0.0 1.0 0.00 0.05 0.00 95 1017.5
20210614050507 32 241 0.0 1.0 0.00 0.05 0.00 95 1017.4
20210614050010 32 241 0.0 1.0 0.00 0.05 0.00 95 1017.3
20210614045504 32 241 0.0 1.0 0.00 0.05 0.00 95 1017.3
20210614045003 32 241 0.0 1.0 0.00 0.05 0.00 95 1017.4
20210614044502 32 241 0.0 1.0 0.00 0.05 0.00 95 1017.2
20210614044005 32 241 0.0 1.0 0.00 0.05 0.00 95 1017.2
20210614043559 32 241 0.0 0.0 0.00 0.05 0.00 95 1017.2
20210614043232 33 241 0.0 0.0 0.00 0.05 0.00 95 1017.2
20210614042557 33 241 0.0 1.0 0.00 0.05 0.00 95 1017.1
20210614042103 33 241 0.0 1.0 0.00 0.05 0.00 95 1017.2
20210614041625 33 241 0.0 2.0 0.00 0.05 0.00 95 1017.2
20210614041116 33 241 1.0 2.0 0.00 0.05 0.00 95 1017.1
20210614040602 33 241 0.0 1.0 0.00 0.05 0.00 94 1017.0
20210614040157 33 241 0.0 1.0 0.00 0.05 0.00 94 1017.0
20210614035609 33 241 0.0 2.0 0.00 0.05 0.00 94 1016.9
20210614035106 34 241 1.0 2.0 0.00 0.05 0.00 95 1016.9
20210614034700 34 241 0.0 1.0 0.00 0.05 0.00 95 1016.8
20210614034055 34 241 0.0 1.0 0.00 0.05 0.00 95 1016.7
20210614033547 34 241 0.0 0.0 0.00 0.05 0.00 95 1016.7
20210614033154 34 241 0.0 3.0 0.00 0.05 0.00 95 1016.7
20210614032547 34 241 2.0 3.0 0.00 0.05 0.00 94 1016.5
20210614032050 34 13 1.0 3.0 0.00 0.05 0.00 93 1016.3
20210614031730 35 304 0.0 2.0 0.00 0.05 0.00 94 1016.3
20210614031038 35 304 0.0 2.0 0.00 0.05 0.00 94 1016.3
20210614030537 35 304 0.0 2.0 0.00 0.05 0.00 94 1016.3
20210614030056 35 303 0.0 1.0 0.00 0.05 0.00 94 1016.2
20210614025540 35 304 0.0 1.0 0.00 0.05 0.05 94 1016.2
20210614025033 36 303 0.0 2.0 0.00 0.05 0.05 94 1016.1
20210614024534 36 303 1.0 2.0 0.00 0.05 0.05 94 1016.1
20210614024110 36 325 1.0 2.0 0.00 0.05 0.05 94 1016.1
20210614023530 36 355 0.0 2.0 0.00 0.05 0.05 94 1016.1
20210614023106 36 355 1.0 2.0 0.00 0.05 0.05 94 1016.0
20210614022538 36 355 0.0 1.0 0.00 0.05 0.05 94 1015.9
20210614022025 37 355 0.0 2.0 0.00 0.05 0.05 94 1015.9
20210614021725 37 355 0.0 2.0 0.00 0.05 0.05 94 1015.8
20210614021036 37 355 0.0 2.0 0.00 0.05 0.05 94 1015.8
20210614020531 37 304 0.0 2.0 0.00 0.05 0.05 94 1015.6
20210614020027 37 304 0.0 1.0 0.00 0.05 0.05 94 1015.6
20210614015518 38 304 0.0 2.0 0.00 0.05 0.05 93 1015.6
20210614015019 38 304 0.0 2.0 0.00 0.05 0.05 93 1015.6
20210614014611 38 304 0.0 2.0 0.00 0.05 0.05 93 1015.5
20210614014019 38 304 1.0 2.0 0.00 0.05 0.05 93 1015.4
20210614013515 39 304 0.0 1.0 0.00 0.05 0.05 93 1015.3
20210614013023 39 304 0.0 2.0 0.00 0.05 0.05 93 1015.3
20210614012511 39 304 1.0 2.0 0.00 0.05 0.05 93 1015.3
20210614012010 39 304 0.0 1.0 0.00 0.05 0.05 92 1015.3
20210614011534 39 304 0.0 1.0 0.00 0.05 0.05 92 1015.4
20210614011024 40 304 0.0 1.0 0.00 0.05 0.05 92 1015.3
20210614010507 40 304 0.0 1.0 0.00 0.05 0.05 92 1015.3
20210614010014 40 304 0.0 0.0 0.00 0.05 0.05 92 1015.2
20210614005508 41 304 0.0 0.0 0.00 0.05 0.05 92 1015.2
20210614004506 41 304 0.0 1.0 0.00 0.05 0.05 91 1015.1
20210614004007 41 304 0.0 2.0 0.00 0.05 0.05 91 1015.0
20210614003505 42 304 0.0 2.0 0.00 0.05 0.05 91 1014.8
20210614003015 42 304 0.0 2.0 0.00 0.05 0.05 91 1014.7
20210614002501 42 304 0.0 2.0 0.00 0.05 0.05 91 1014.6
20210614002121 42 304 0.0 2.0 0.00 0.05 0.05 91 1014.7
20210614001713 43 304 0.0 2.0 0.00 0.05 0.05 91 1014.6
20210614001057 43 304 0.0 1.0 0.00 0.05 0.05 90 1014.3
20210614000556 43 304 0.0 1.0 0.00 0.05 0.05 90 1014.3
20210614000214 43 304 0.0 1.0 0.00 0.05 0.05 90 1014.2
20210613235553 43 304 0.0 1.0 0.00 0.05 0.05 89 1014.2
20210613235105 44 304 0.0 2.0 0.00 0.05 0.05 89 1014.1
20210613234707 44 304 0.0 2.0 0.00 0.05 0.05 89 1014.1
20210613234050 44 304 0.0 2.0 0.00 0.05 0.05 88 1014.1
20210613233550 45 304 0.0 2.0 0.00 0.05 0.05 88 1014.0
20210613232556 45 304 0.0 0.0 0.00 0.05 0.05 86 1014.0
20210613232057 46 304 0.0 0.0 0.00 0.05 0.05 86 1013.8
20210613231638 46 304 0.0 0.0 0.00 0.05 0.05 85 1013.8
20210613231046 46 304 0.0 1.0 0.00 0.05 0.05 84 1013.8
20210613230546 47 304 0.0 1.0 0.00 0.05 0.05 84 1013.7
20210613230107 47 304 0.0 2.0 0.00 0.05 0.05 83 1013.5
20210613225639 47 304 1.0 2.0 0.00 0.05 0.05 83 1013.6
20210613225046 48 304 1.0 2.0 0.00 0.05 0.05 82 1013.5
20210613224624 48 300 0.0 2.0 0.00 0.05 0.05 81 1013.4
20210613224040 48 302 0.0 2.0 0.00 0.05 0.05 80 1013.3
20210613223559 49 302 1.0 3.0 0.00 0.05 0.05 79 1013.3
20210613223057 49 194 2.0 3.0 0.00 0.05 0.05 78 1013.3
20210613222536 50 84 0.0 4.0 0.00 0.05 0.05 76 1013.1
20210613222034 50 61 2.0 4.0 0.00 0.05 0.05 76 1013.1
20210613221549 50 38 1.0 4.0 0.00 0.05 0.05 74 1013.0
20210613221033 51 89 1.0 4.0 0.00 0.05 0.05 74 1013.0
20210613220534 51 63 2.0 5.0 0.00 0.05 0.05 73 1013.0
20210613220138 51 78 2.0 4.0 0.00 0.05 0.05 73 1013.0
20210613215533 51 153 1.0 4.0 0.00 0.05 0.05 72 1012.9
20210613214614 52 65 2.0 10.0 0.00 0.05 0.05 69 1012.7
20210613214029 52 60 1.0 8.0 0.00 0.05 0.05 69 1012.7
20210613213526 53 105 2.0 6.0 0.00 0.05 0.05 67 1012.7
20210613213057 53 5 3.0 6.0 0.00 0.05 0.05 66 1012.7
20210613212525 54 244 1.0 12.0 0.00 0.05 0.05 65 1012.6
20210613212023 54 117 4.0 12.0 0.00 0.05 0.05 62 1012.6
20210613211523 55 165 5.0 9.0 0.00 0.05 0.05 61 1012.5
20210613211021 56 148 3.0 7.0 0.00 0.05 0.05 62 1012.4
20210613210035 55 138 2.0 11.0 0.00 0.05 0.05 66 1012.5
20210613205520 55 29 6.0 12.0 0.00 0.05 0.05 67 1012.4
20210613205107 55 51 5.0 14.0 0.00 0.05 0.05 67 1012.4
20210613204557 55 47 6.0 12.0 0.00 0.05 0.05 67 1012.4
20210613204025 54 46 8.0 12.0 0.00 0.05 0.05 68 1012.3
20210613203517 54 113 6.0 17.0 0.00 0.05 0.05 65 1012.4
20210613203019 54 65 11.0 17.0 0.00 0.05 0.05 67 1012.5
20210613202516 55 76 5.0 12.0 0.00 0.05 0.05 65 1012.4
20210613202020 55 63 4.0 11.0 0.00 0.05 0.05 65 1012.3
20210613201535 55 87 4.0 13.0 0.00 0.05 0.05 62 1012.2
20210613201012 55 151 2.0 14.0 0.00 0.05 0.05 62 1012.1
20210613200511 56 59 8.0 14.0 0.00 0.05 0.05 62 1012.1
20210613200057 56 124 5.0 18.0 0.00 0.05 0.05 60 1012.1
20210613195523 56 67 8.0 18.0 0.00 0.05 0.05 60 1012.1
20210613195008 56 31 9.0 17.0 0.00 0.05 0.05 62 1012.0
20210613194535 56 136 7.0 19.0 0.00 0.05 0.05 58 1011.9
20210613194005 56 339 10.0 19.0 0.00 0.05 0.05 58 1011.9
20210613193507 56 97 9.0 17.0 0.00 0.05 0.05 57 1011.9
20210613193006 57 65 10.0 16.0 0.00 0.05 0.05 56 1011.8
20210613192503 57 103 6.0 14.0 0.00 0.05 0.05 57 1011.7
20210613192003 57 89 5.0 15.0 0.00 0.05 0.05 56 1011.5
20210613191742 57 82 6.0 19.0 0.00 0.05 0.05 56 1011.6
20210613191109 57 67 9.0 19.0 0.00 0.05 0.05 54 1011.5
20210613190606 57 114 6.0 21.0 0.00 0.05 0.05 53 1011.5
20210613190234 58 69 13.0 21.0 0.00 0.05 0.05 54 1011.5
20210613185600 58 182 8.0 17.0 0.00 0.05 0.05 53 1011.2
20210613185054 59 145 5.0 13.0 0.00 0.05 0.05 51 1011.3
20210613184715 59 64 6.0 13.0 0.00 0.05 0.05 53 1011.1
20210613184052 60 147 6.0 12.0 0.00 0.05 0.05 52 1011.1
20210613183552 60 209 6.0 12.0 0.00 0.05 0.05 49 1010.9
20210613183116 60 173 3.0 14.0 0.00 0.05 0.05 49 1010.9
20210613182551 60 230 6.0 14.0 0.00 0.05 0.05 49 1010.8
20210613182050 61 206 5.0 11.0 0.00 0.05 0.05 47 1010.7
20210613181641 61 230 5.0 14.0 0.00 0.05 0.05 48 1010.7
20210613181048 61 193 8.0 14.0 0.00 0.05 0.05 45 1010.7
20210613180548 61 222 5.0 15.0 0.00 0.05 0.05 49 1010.5
20210613180143 60 153 7.0 21.0 0.00 0.05 0.05 46 1010.4
20210613175546 60 229 9.0 21.0 0.00 0.05 0.05 45 1010.2
20210613175051 61 123 6.0 17.0 0.00 0.05 0.05 44 1010.3
20210613174758 60 169 9.0 17.0 0.00 0.05 0.05 44 1010.1
20210613174054 61 101 8.0 20.0 0.00 0.05 0.05 41 1010.0
20210613173543 61 76 7.0 20.0 0.00 0.05 0.05 44 1009.9
20210613173126 61 121 6.0 15.0 0.00 0.05 0.05 43 1009.8
20210613172542 62 97 6.0 13.0 0.00 0.05 0.05 43 1009.7
20210613172038 61 178 3.0 14.0 0.00 0.05 0.05 41 1009.9
20210613171548 61 214 4.0 14.0 0.00 0.05 0.05 39 1009.9
20210613171048 61 49 5.0 15.0 0.00 0.05 0.05 41 1009.8
20210613170536 61 86 3.0 15.0 0.00 0.05 0.05 43 1009.7
20210613165537 62 155 5.0 14.0 0.00 0.05 0.05 37 1009.7
20210613165033 62 173 4.0 14.0 0.00 0.05 0.05 40 1009.7
20210613164545 62 33 4.0 12.0 0.00 0.05 0.05 39 1009.6
20210613164034 62 137 6.0 12.0 0.00 0.05 0.05 39 1009.4
20210613163532 62 109 6.0 12.0 0.00 0.05 0.05 41 1009.4
20210613163110 62 155 6.0 14.0 0.00 0.05 0.05 41 1009.6
20210613162540 61 123 10.0 17.0 0.00 0.05 0.05 43 1009.4
20210613162037 62 41 9.0 17.0 0.00 0.05 0.05 46 1009.5
20210613161610 63 69 6.0 12.0 0.00 0.05 0.05 46 1009.4
20210613161026 63 87 2.0 12.0 0.00 0.05 0.05 53 1009.5
20210613160534 63 66 4.0 12.0 0.00 0.05 0.05 50 1009.3
20210613160040 63 94 4.0 10.0 0.00 0.05 0.05 49 1009.3
20210613155527 62 15 4.0 11.0 0.00 0.05 0.05 49 1009.2
20210613155051 62 56 7.0 11.0 0.00 0.05 0.05 55 1009.1
20210613154550 62 74 6.0 15.0 0.00 0.05 0.05 55 1009.1
20210613154017 61 228 3.0 16.0 0.00 0.05 0.05 55 1009.1
20210613153515 61 59 7.0 14.0 0.00 0.05 0.05 55 1009.1
20210613153052 61 80 9.0 14.0 0.00 0.05 0.05 57 1009.1
20210613152513 61 78 7.0 12.0 0.00 0.05 0.05 58 1009.1
20210613152019 60 180 6.0 13.0 0.00 0.05 0.05 54 1009.1
20210613151551 61 26 6.0 13.0 0.00 0.05 0.05 55 1009.1
20210613151010 60 53 8.0 12.0 0.00 0.05 0.05 55 1009.0
20210613150509 60 63 6.0 10.0 0.00 0.05 0.05 61 1009.0
20210613150013 58 115 4.0 11.0 0.00 0.05 0.05 61 1009.1
20210613145511 58 83 6.0 13.0 0.00 0.05 0.05 59 1009.0
20210613145010 58 206 7.0 13.0 0.00 0.05 0.05 61 1009.0
20210613144533 58 77 5.0 13.0 0.00 0.05 0.05 63 1009.1
20210613144005 58 71 7.0 13.0 0.00 0.05 0.05 62 1008.9
20210613143504 58 171 4.0 12.0 0.00 0.05 0.05 61 1008.9
20210613142504 59 15 6.0 12.0 0.00 0.05 0.05 63 1008.8
20210613142004 59 63 5.0 13.0 0.00 0.05 0.05 65 1008.8
20210613141502 59 57 6.0 13.0 0.00 0.05 0.05 65 1008.7
20210613141102 59 143 3.0 12.0 0.00 0.05 0.05 63 1008.8
20210613140606 59 192 4.0 13.0 0.00 0.05 0.05 62 1008.9
20210613140121 59 52 6.0 14.0 0.00 0.05 0.05 65 1008.9
20210613135556 59 64 8.0 14.0 0.00 0.05 0.05 69 1008.9
20210613135054 58 348 5.0 12.0 0.00 0.05 0.05 63 1008.9
20210613134623 58 79 3.0 15.0 0.00 0.05 0.05 67 1008.9
20210613134051 58 333 7.0 15.0 0.00 0.05 0.05 66 1008.9
20210613133552 58 54 9.0 16.0 0.00 0.05 0.05 65 1008.8
20210613133144 58 90 4.0 18.0 0.00 0.05 0.05 64 1008.8
20210613132550 58 50 9.0 18.0 0.00 0.05 0.05 67 1008.7
20210613132057 58 67 6.0 15.0 0.00 0.05 0.05 66 1008.7
20210613131734 59 22 6.0 17.0 0.00 0.05 0.05 65 1008.6
20210613131054 59 81 9.0 17.0 0.00 0.05 0.05 65 1008.5
20210613130547 59 355 6.0 12.0 0.00 0.05 0.05 67 1008.5
20210613130135 59 72 5.0 12.0 0.00 0.05 0.05 63 1008.6
20210613125547 58 109 2.0 7.0 0.00 0.05 0.05 64 1008.5
20210613125523 58 105 2.0 7.0 0.00 0.05 0.05 64 1008.5
20210613125043 59 130 1.0 7.0 0.00 0.05 0.05 66 1008.4
20210613124656 58 98 1.0 4.0 0.00 0.05 0.05 68 1008.4
20210613124039 58 165 1.0 4.0 0.00 0.05 0.05 71 1008.4
20210613123542 57 114 1.0 4.0 0.00 0.05 0.05 74 1008.3
20210613123221 57 237 2.0 4.0 0.00 0.05 0.05 74 1008.4
20210613122538 58 171 1.0 3.0 0.00 0.05 0.05 69 1008.4
20210613122053 58 38 0.0 3.0 0.00 0.05 0.05 69 1008.4
20210613121549 57 36 2.0 5.0 0.00 0.05 0.05 71 1008.3
20210613121034 58 18 3.0 5.0 0.00 0.05 0.05 70 1008.3
20210613120540 58 74 1.0 3.0 0.00 0.05 0.05 70 1008.2
20210613120059 57 75 0.0 2.0 0.00 0.05 0.05 73 1008.2
20210613115529 57 75 1.0 3.0 0.00 0.05 0.05 74 1008.3